UTA1507 UUEE-URWW
Flight info
| Callsign | UTA1507 |
|---|---|
| Flight time | 1h 40m |
| Altitude | 35000 |
| Route | TOGMO3H TOGMO M56 ABAGI W21 NATIT NATIT2J |
| Aircraft | B38M/M-SDE1FGHILORVWXY/HB1 |
Departure
| Time | 2026-04-22 07:01 |
|---|---|
| Airport | Sheremetyevo International Airport (UUEE) |
Arrival
| Time | 2026-04-22 08:42 |
|---|---|
| Airport | Volgograd International Airport (URWW) |
| Time | Latitude | Longitude | Altitude | Speed | Heading |
|---|---|---|---|---|---|
| 2026-04-22 06:52 | 55.97740 | 37.41013 | 641 ft | 0 kts | 75° |
| 2026-04-22 06:54 | 55.97738 | 37.40994 | 641 ft | 3 kts | 75° |
| 2026-04-22 06:54 | 55.97733 | 37.40961 | 641 ft | 1 kts | 75° |
| 2026-04-22 06:55 | 55.97728 | 37.40930 | 641 ft | 3 kts | 76° |
| 2026-04-22 06:55 | 55.97726 | 37.40907 | 641 ft | 3 kts | 131° |
| 2026-04-22 06:55 | 55.97734 | 37.40899 | 641 ft | 3 kts | 172° |
| 2026-04-22 06:55 | 55.97742 | 37.40897 | 641 ft | 1 kts | 165° |
| 2026-04-22 06:57 | 55.97740 | 37.40898 | 641 ft | 1 kts | 165° |
| 2026-04-22 06:57 | 55.97690 | 37.40922 | 642 ft | 14 kts | 165° |
| 2026-04-22 06:57 | 55.97600 | 37.41012 | 641 ft | 16 kts | 93° |
| 2026-04-22 06:58 | 55.97560 | 37.41158 | 643 ft | 16 kts | 154° |
| 2026-04-22 06:58 | 55.97556 | 37.41325 | 642 ft | 16 kts | 72° |
| 2026-04-22 06:58 | 55.97588 | 37.41543 | 641 ft | 21 kts | 75° |
| 2026-04-22 06:58 | 55.97630 | 37.41821 | 641 ft | 24 kts | 75° |
| 2026-04-22 06:59 | 55.97673 | 37.42122 | 641 ft | 26 kts | 77° |
| 2026-04-22 06:59 | 55.97717 | 37.42435 | 641 ft | 27 kts | 73° |
| 2026-04-22 06:59 | 55.97761 | 37.42718 | 641 ft | 14 kts | 91° |
| 2026-04-22 06:59 | 55.97684 | 37.42819 | 642 ft | 16 kts | 166° |
| 2026-04-22 07:00 | 55.97572 | 37.42870 | 641 ft | 17 kts | 165° |
| 2026-04-22 07:00 | 55.97452 | 37.42926 | 643 ft | 18 kts | 166° |
| 2026-04-22 07:00 | 55.97353 | 37.42910 | 643 ft | 11 kts | 245° |
| 2026-04-22 07:00 | 55.97349 | 37.42882 | 643 ft | 5 kts | 257° |
| 2026-04-22 07:01 | 55.97258 | 37.42257 | 641 ft | 97 kts | 255° |
| 2026-04-22 07:01 | 55.97022 | 37.40638 | 645 ft | 169 kts | 253° |
| 2026-04-22 07:01 | 55.96702 | 37.38531 | 1383 ft | 177 kts | 257° |
| 2026-04-22 07:01 | 55.96390 | 37.36491 | 2579 ft | 169 kts | 257° |
| 2026-04-22 07:02 | 55.96069 | 37.34292 | 3121 ft | 200 kts | 257° |
| 2026-04-22 07:02 | 55.95683 | 37.31692 | 3633 ft | 234 kts | 257° |
| 2026-04-22 07:02 | 55.95242 | 37.28785 | 4503 ft | 246 kts | 256° |
| 2026-04-22 07:02 | 55.94784 | 37.25749 | 5415 ft | 262 kts | 257° |
| 2026-04-22 07:03 | 55.94302 | 37.22559 | 6412 ft | 268 kts | 257° |
| 2026-04-22 07:03 | 55.93812 | 37.19319 | 7476 ft | 273 kts | 257° |
| 2026-04-22 07:03 | 55.93312 | 37.16013 | 8492 ft | 279 kts | 257° |
| 2026-04-22 07:03 | 55.92802 | 37.12647 | 9458 ft | 285 kts | 257° |
| 2026-04-22 07:04 | 55.92277 | 37.09195 | 9905 ft | 290 kts | 257° |
| 2026-04-22 07:04 | 55.91772 | 37.05721 | 9968 ft | 288 kts | 262° |
| 2026-04-22 07:04 | 55.91861 | 37.02238 | 9965 ft | 281 kts | 289° |
| 2026-04-22 07:04 | 55.92778 | 36.99222 | 10015 ft | 277 kts | 313° |
| 2026-04-22 07:05 | 55.94226 | 36.96974 | 10010 ft | 277 kts | 324° |
| 2026-04-22 07:05 | 55.95774 | 36.94925 | 9991 ft | 277 kts | 325° |
| 2026-04-22 07:05 | 55.97360 | 36.92956 | 10039 ft | 279 kts | 333° |
| 2026-04-22 07:05 | 55.99216 | 36.92125 | 10738 ft | 276 kts | 0° |
| 2026-04-22 07:06 | 56.01102 | 36.92782 | 11652 ft | 281 kts | 22° |
| 2026-04-22 07:06 | 56.02818 | 36.94494 | 12534 ft | 285 kts | 30° |
| 2026-04-22 07:06 | 56.04498 | 36.96344 | 13364 ft | 290 kts | 31° |
| 2026-04-22 07:06 | 56.06246 | 36.98318 | 13801 ft | 293 kts | 31° |
| 2026-04-22 07:07 | 56.07936 | 37.00252 | 13863 ft | 292 kts | 31° |
| 2026-04-22 07:07 | 56.09639 | 37.02223 | 13855 ft | 291 kts | 32° |
| 2026-04-22 07:07 | 56.11237 | 37.04545 | 14188 ft | 305 kts | 49° |
| 2026-04-22 07:07 | 56.12303 | 37.07934 | 14473 ft | 321 kts | 70° |
| 2026-04-22 07:08 | 56.12867 | 37.11823 | 14641 ft | 324 kts | 73° |
| 2026-04-22 07:08 | 56.13438 | 37.15742 | 14773 ft | 325 kts | 73° |
| 2026-04-22 07:08 | 56.14002 | 37.19673 | 14857 ft | 326 kts | 73° |
| 2026-04-22 07:08 | 56.14562 | 37.23606 | 14859 ft | 326 kts | 73° |
| 2026-04-22 07:09 | 56.14940 | 37.27633 | 15031 ft | 333 kts | 89° |
| 2026-04-22 07:09 | 56.14427 | 37.31671 | 15848 ft | 337 kts | 112° |
| 2026-04-22 07:09 | 56.13610 | 37.34128 | 16317 ft | 344 kts | 126° |
| 2026-04-22 07:09 | 56.11127 | 37.37733 | 17261 ft | 354 kts | 151° |
| 2026-04-22 07:10 | 56.08897 | 37.39680 | 17927 ft | 359 kts | 152° |
| 2026-04-22 07:10 | 56.07400 | 37.40973 | 18360 ft | 362 kts | 152° |
| 2026-04-22 07:10 | 56.05117 | 37.42922 | 19027 ft | 365 kts | 152° |
| 2026-04-22 07:10 | 56.02804 | 37.44875 | 19620 ft | 370 kts | 152° |
| 2026-04-22 07:11 | 56.00454 | 37.46848 | 19822 ft | 373 kts | 152° |
| 2026-04-22 07:11 | 55.98107 | 37.48812 | 19863 ft | 372 kts | 152° |
| 2026-04-22 07:11 | 55.95966 | 37.51324 | 20275 ft | 366 kts | 132° |
| 2026-04-22 07:11 | 55.94451 | 37.54904 | 20912 ft | 361 kts | 114° |
| 2026-04-22 07:12 | 55.93598 | 37.59090 | 21479 ft | 359 kts | 101° |
| 2026-04-22 07:12 | 55.92998 | 37.63420 | 22055 ft | 361 kts | 99° |
| 2026-04-22 07:12 | 55.92444 | 37.67806 | 22630 ft | 363 kts | 98° |
| 2026-04-22 07:12 | 55.91912 | 37.72218 | 23195 ft | 366 kts | 99° |
| 2026-04-22 07:13 | 55.90944 | 37.76450 | 23736 ft | 374 kts | 116° |
| 2026-04-22 07:13 | 55.89660 | 37.80503 | 24208 ft | 377 kts | 114° |
| 2026-04-22 07:13 | 55.88394 | 37.84620 | 24703 ft | 380 kts | 114° |
| 2026-04-22 07:13 | 55.87111 | 37.88752 | 25200 ft | 382 kts | 114° |
| 2026-04-22 07:14 | 55.85814 | 37.92903 | 25657 ft | 385 kts | 114° |
| 2026-04-22 07:14 | 55.84240 | 37.96822 | 26094 ft | 396 kts | 130° |
| 2026-04-22 07:14 | 55.81998 | 37.99777 | 26526 ft | 410 kts | 149° |
| 2026-04-22 07:14 | 55.79659 | 38.01257 | 26865 ft | 421 kts | 165° |
| 2026-04-22 07:15 | 55.76714 | 38.01539 | 27251 ft | 430 kts | 184° |
| 2026-04-22 07:15 | 55.73786 | 38.00260 | 27547 ft | 439 kts | 202° |
| 2026-04-22 07:15 | 55.71161 | 37.97496 | 27959 ft | 441 kts | 220° |
| 2026-04-22 07:15 | 55.68948 | 37.93698 | 28233 ft | 446 kts | 225° |
| 2026-04-22 07:16 | 55.66478 | 37.90338 | 28478 ft | 450 kts | 206° |
| 2026-04-22 07:16 | 55.63566 | 37.88399 | 28887 ft | 447 kts | 189° |
| 2026-04-22 07:16 | 55.60473 | 37.87931 | 29108 ft | 447 kts | 173° |
| 2026-04-22 07:16 | 55.57414 | 37.88268 | 29459 ft | 448 kts | 172° |
| 2026-04-22 07:17 | 55.54257 | 37.88687 | 29778 ft | 450 kts | 171° |
| 2026-04-22 07:17 | 55.51170 | 37.89146 | 30110 ft | 452 kts | 171° |
| 2026-04-22 07:17 | 55.48024 | 37.89643 | 30423 ft | 455 kts | 171° |
| 2026-04-22 07:17 | 55.44870 | 37.90158 | 30781 ft | 456 kts | 171° |
| 2026-04-22 07:18 | 55.41705 | 37.90701 | 31118 ft | 457 kts | 169° |
| 2026-04-22 07:18 | 55.38663 | 37.92123 | 31428 ft | 450 kts | 152° |
| 2026-04-22 07:18 | 55.35964 | 37.94825 | 31689 ft | 447 kts | 143° |
| 2026-04-22 07:18 | 55.33330 | 37.97794 | 31898 ft | 451 kts | 143° |
| 2026-04-22 07:19 | 55.30698 | 38.00812 | 32228 ft | 452 kts | 143° |
| 2026-04-22 07:19 | 55.28067 | 38.03863 | 32524 ft | 454 kts | 143° |
| 2026-04-22 07:19 | 55.25440 | 38.06932 | 32912 ft | 453 kts | 143° |
| 2026-04-22 07:19 | 55.22817 | 38.10002 | 33286 ft | 453 kts | 143° |
| 2026-04-22 07:20 | 55.20198 | 38.13066 | 33665 ft | 452 kts | 144° |
| 2026-04-22 07:20 | 55.17584 | 38.16119 | 34030 ft | 452 kts | 144° |
| 2026-04-22 07:20 | 55.14971 | 38.19167 | 34378 ft | 451 kts | 144° |
| 2026-04-22 07:20 | 55.12359 | 38.22210 | 34701 ft | 451 kts | 144° |
| 2026-04-22 07:21 | 55.09740 | 38.25254 | 34873 ft | 453 kts | 144° |
| 2026-04-22 07:21 | 55.04503 | 38.31329 | 34857 ft | 450 kts | 144° |
| 2026-04-22 07:22 | 54.99281 | 38.37366 | 34860 ft | 451 kts | 145° |
| 2026-04-22 07:22 | 54.94058 | 38.43385 | 34862 ft | 450 kts | 145° |
| 2026-04-22 07:23 | 54.88835 | 38.49386 | 34859 ft | 450 kts | 145° |
| 2026-04-22 07:23 | 54.83611 | 38.55370 | 34864 ft | 450 kts | 145° |
| 2026-04-22 07:24 | 54.78385 | 38.61338 | 34857 ft | 449 kts | 145° |
| 2026-04-22 07:24 | 54.73063 | 38.67020 | 34858 ft | 450 kts | 148° |
| 2026-04-22 07:25 | 54.67712 | 38.72625 | 34860 ft | 450 kts | 147° |
| 2026-04-22 07:25 | 54.62363 | 38.78223 | 34862 ft | 449 kts | 148° |
| 2026-04-22 07:26 | 54.57010 | 38.83780 | 34857 ft | 449 kts | 148° |
| 2026-04-22 07:26 | 54.51654 | 38.89324 | 34859 ft | 449 kts | 148° |
| 2026-04-22 07:27 | 54.46296 | 38.94854 | 34861 ft | 449 kts | 148° |
| 2026-04-22 07:27 | 54.41010 | 39.00544 | 34846 ft | 447 kts | 139° |
| 2026-04-22 07:27 | 54.38908 | 39.04413 | 34863 ft | 443 kts | 122° |
| 2026-04-22 07:28 | 54.36214 | 39.13890 | 34858 ft | 444 kts | 112° |
| 2026-04-22 07:28 | 54.33798 | 39.23611 | 34861 ft | 444 kts | 111° |
| 2026-04-22 07:29 | 54.31421 | 39.33367 | 34861 ft | 444 kts | 111° |
| 2026-04-22 07:29 | 54.29047 | 39.43135 | 34859 ft | 444 kts | 111° |
| 2026-04-22 07:30 | 54.26666 | 39.52886 | 34864 ft | 444 kts | 112° |
| 2026-04-22 07:30 | 54.24276 | 39.62634 | 34861 ft | 444 kts | 112° |
| 2026-04-22 07:31 | 54.21879 | 39.72368 | 34860 ft | 444 kts | 112° |
| 2026-04-22 07:31 | 54.19491 | 39.82023 | 34859 ft | 444 kts | 112° |
| 2026-04-22 07:32 | 54.17078 | 39.91736 | 34862 ft | 445 kts | 112° |
| 2026-04-22 07:32 | 54.14637 | 40.01516 | 34859 ft | 445 kts | 112° |
| 2026-04-22 07:33 | 54.12225 | 40.11150 | 34860 ft | 445 kts | 112° |
| 2026-04-22 07:33 | 54.10356 | 40.21173 | 34865 ft | 445 kts | 106° |
| 2026-04-22 07:34 | 54.08598 | 40.31265 | 34860 ft | 444 kts | 106° |
| 2026-04-22 07:34 | 54.06841 | 40.41351 | 34859 ft | 444 kts | 106° |
| 2026-04-22 07:35 | 54.05076 | 40.51425 | 34858 ft | 444 kts | 106° |
| 2026-04-22 07:35 | 54.03302 | 40.61490 | 34861 ft | 444 kts | 106° |
| 2026-04-22 07:36 | 54.01520 | 40.71549 | 34859 ft | 444 kts | 106° |
| 2026-04-22 07:36 | 53.99729 | 40.81602 | 34861 ft | 444 kts | 107° |
| 2026-04-22 07:37 | 53.97929 | 40.91645 | 34859 ft | 444 kts | 107° |
| 2026-04-22 07:37 | 53.96121 | 41.01693 | 34860 ft | 445 kts | 107° |
| 2026-04-22 07:38 | 53.94466 | 41.11818 | 34860 ft | 445 kts | 105° |
| 2026-04-22 07:38 | 53.92802 | 41.21940 | 34860 ft | 445 kts | 105° |
| 2026-04-22 07:39 | 53.91128 | 41.32045 | 34861 ft | 445 kts | 105° |
| 2026-04-22 07:39 | 53.89446 | 41.42140 | 34860 ft | 445 kts | 106° |
| 2026-04-22 07:40 | 53.87754 | 41.52231 | 34860 ft | 445 kts | 106° |
| 2026-04-22 07:40 | 53.86056 | 41.62308 | 34859 ft | 445 kts | 106° |
| 2026-04-22 07:41 | 53.84350 | 41.72377 | 34859 ft | 445 kts | 106° |
| 2026-04-22 07:41 | 53.82633 | 41.82433 | 34858 ft | 445 kts | 106° |
| 2026-04-22 07:42 | 53.80909 | 41.92481 | 34860 ft | 445 kts | 106° |
| 2026-04-22 07:42 | 53.79176 | 42.02525 | 34850 ft | 445 kts | 106° |
| 2026-04-22 07:43 | 53.77436 | 42.12551 | 34841 ft | 444 kts | 106° |
| 2026-04-22 07:43 | 53.75686 | 42.22573 | 34841 ft | 445 kts | 107° |
| 2026-04-22 07:44 | 53.73930 | 42.32583 | 34841 ft | 445 kts | 107° |
| 2026-04-22 07:44 | 53.72173 | 42.42538 | 34841 ft | 445 kts | 107° |
| 2026-04-22 07:45 | 53.70397 | 42.52549 | 34844 ft | 446 kts | 107° |
| 2026-04-22 07:45 | 53.68351 | 42.62388 | 34814 ft | 444 kts | 121° |
| 2026-04-22 07:46 | 53.66495 | 42.66508 | 34846 ft | 442 kts | 136° |
| 2026-04-22 07:46 | 53.64062 | 42.69644 | 34835 ft | 441 kts | 152° |
| 2026-04-22 07:46 | 53.58530 | 42.74158 | 34823 ft | 442 kts | 156° |
| 2026-04-22 07:47 | 53.52909 | 42.78348 | 34838 ft | 442 kts | 157° |
| 2026-04-22 07:47 | 53.47265 | 42.82436 | 34840 ft | 442 kts | 158° |
| 2026-04-22 07:48 | 53.41616 | 42.86496 | 34839 ft | 441 kts | 158° |
| 2026-04-22 07:48 | 53.35969 | 42.90539 | 34845 ft | 441 kts | 158° |
| 2026-04-22 07:49 | 53.30320 | 42.94573 | 34841 ft | 441 kts | 158° |
| 2026-04-22 07:49 | 53.24674 | 42.98592 | 34842 ft | 441 kts | 158° |
| 2026-04-22 07:50 | 53.19032 | 43.02598 | 34842 ft | 441 kts | 158° |
| 2026-04-22 07:50 | 53.13399 | 43.06627 | 34843 ft | 441 kts | 157° |
| 2026-04-22 07:51 | 53.07808 | 43.10815 | 34840 ft | 440 kts | 157° |
| 2026-04-22 07:51 | 53.02212 | 43.14972 | 34841 ft | 440 kts | 157° |
| 2026-04-22 07:52 | 52.96657 | 43.19086 | 34842 ft | 440 kts | 157° |
| 2026-04-22 07:52 | 52.91029 | 43.23243 | 34842 ft | 440 kts | 157° |
| 2026-04-22 07:53 | 52.85476 | 43.27332 | 34841 ft | 439 kts | 157° |
| 2026-04-22 07:53 | 52.79889 | 43.31435 | 34841 ft | 439 kts | 158° |
| 2026-04-22 07:54 | 52.74308 | 43.35521 | 34842 ft | 439 kts | 158° |
| 2026-04-22 07:54 | 52.68727 | 43.39597 | 34851 ft | 438 kts | 158° |
| 2026-04-22 07:55 | 52.63148 | 43.43659 | 34852 ft | 438 kts | 158° |
| 2026-04-22 07:55 | 52.57574 | 43.47707 | 34851 ft | 437 kts | 158° |
| 2026-04-22 07:56 | 52.52010 | 43.51736 | 34851 ft | 437 kts | 158° |
| 2026-04-22 07:56 | 52.46442 | 43.55756 | 34851 ft | 437 kts | 158° |
| 2026-04-22 07:57 | 52.41818 | 43.59087 | 34852 ft | 436 kts | 158° |
| 2026-04-22 07:57 | 52.36258 | 43.63081 | 34849 ft | 436 kts | 158° |
| 2026-04-22 07:58 | 52.30704 | 43.67061 | 34853 ft | 436 kts | 158° |
| 2026-04-22 07:58 | 52.25146 | 43.71033 | 34851 ft | 436 kts | 158° |
| 2026-04-22 07:59 | 52.19594 | 43.74988 | 34845 ft | 435 kts | 158° |
| 2026-04-22 07:59 | 52.14047 | 43.78930 | 34844 ft | 435 kts | 158° |
| 2026-04-22 08:00 | 52.08499 | 43.82862 | 34833 ft | 434 kts | 159° |
| 2026-04-22 08:00 | 52.02952 | 43.86782 | 34835 ft | 435 kts | 159° |
| 2026-04-22 08:01 | 51.97405 | 43.90691 | 34831 ft | 434 kts | 159° |
| 2026-04-22 08:01 | 51.91859 | 43.94590 | 34832 ft | 435 kts | 159° |
| 2026-04-22 08:02 | 51.86311 | 43.98479 | 34833 ft | 434 kts | 159° |
| 2026-04-22 08:02 | 51.80767 | 44.02355 | 34834 ft | 434 kts | 159° |
| 2026-04-22 08:03 | 51.75220 | 44.06222 | 34833 ft | 434 kts | 159° |
| 2026-04-22 08:03 | 51.69672 | 44.10081 | 34828 ft | 434 kts | 159° |
| 2026-04-22 08:04 | 51.64122 | 44.13931 | 34825 ft | 434 kts | 159° |
| 2026-04-22 08:04 | 51.58571 | 44.17769 | 34821 ft | 434 kts | 159° |
| 2026-04-22 08:05 | 51.53024 | 44.21597 | 34821 ft | 434 kts | 159° |
| 2026-04-22 08:05 | 51.47478 | 44.25412 | 34819 ft | 434 kts | 159° |
| 2026-04-22 08:06 | 51.41929 | 44.29219 | 34820 ft | 434 kts | 159° |
| 2026-04-22 08:06 | 51.36384 | 44.33014 | 34831 ft | 433 kts | 160° |
| 2026-04-22 08:07 | 51.30839 | 44.36801 | 34825 ft | 433 kts | 160° |
| 2026-04-22 08:07 | 51.25291 | 44.40580 | 34814 ft | 433 kts | 160° |
| 2026-04-22 08:08 | 51.19744 | 44.44349 | 34816 ft | 433 kts | 160° |
| 2026-04-22 08:08 | 51.14007 | 44.46472 | 34814 ft | 421 kts | 185° |
| 2026-04-22 08:09 | 51.08126 | 44.46098 | 34813 ft | 424 kts | 185° |
| 2026-04-22 08:09 | 51.02282 | 44.45621 | 34816 ft | 423 kts | 186° |
| 2026-04-22 08:10 | 50.96373 | 44.45079 | 34817 ft | 422 kts | 186° |
| 2026-04-22 08:10 | 50.90573 | 44.44538 | 34126 ft | 419 kts | 186° |
| 2026-04-22 08:11 | 50.87650 | 44.44266 | 33416 ft | 421 kts | 186° |
| 2026-04-22 08:11 | 50.84731 | 44.43994 | 32866 ft | 418 kts | 186° |
| 2026-04-22 08:11 | 50.81842 | 44.43726 | 32415 ft | 413 kts | 186° |
| 2026-04-22 08:11 | 50.78987 | 44.43461 | 31949 ft | 409 kts | 186° |
| 2026-04-22 08:12 | 50.76158 | 44.43198 | 31457 ft | 405 kts | 186° |
| 2026-04-22 08:12 | 50.73352 | 44.42939 | 30980 ft | 402 kts | 187° |
| 2026-04-22 08:12 | 50.70573 | 44.42681 | 30496 ft | 398 kts | 187° |
| 2026-04-22 08:12 | 50.67821 | 44.42427 | 30030 ft | 394 kts | 187° |
| 2026-04-22 08:13 | 50.65097 | 44.42176 | 29565 ft | 390 kts | 187° |
| 2026-04-22 08:13 | 50.62405 | 44.41927 | 29118 ft | 386 kts | 187° |
| 2026-04-22 08:13 | 50.59754 | 44.41687 | 28799 ft | 376 kts | 187° |
| 2026-04-22 08:13 | 50.57156 | 44.41441 | 28259 ft | 373 kts | 188° |
| 2026-04-22 08:14 | 50.54574 | 44.41195 | 27771 ft | 373 kts | 186° |
| 2026-04-22 08:14 | 50.52003 | 44.40954 | 27436 ft | 365 kts | 187° |
| 2026-04-22 08:14 | 50.49495 | 44.40736 | 27203 ft | 357 kts | 186° |
| 2026-04-22 08:14 | 50.47037 | 44.40508 | 26672 ft | 352 kts | 186° |
| 2026-04-22 08:15 | 50.44600 | 44.40294 | 26287 ft | 349 kts | 186° |
| 2026-04-22 08:15 | 50.42192 | 44.40082 | 25983 ft | 345 kts | 186° |
| 2026-04-22 08:15 | 50.39798 | 44.39857 | 25556 ft | 344 kts | 186° |
| 2026-04-22 08:15 | 50.37416 | 44.39643 | 25251 ft | 341 kts | 185° |
| 2026-04-22 08:16 | 50.35063 | 44.39427 | 24794 ft | 338 kts | 186° |
| 2026-04-22 08:16 | 50.32729 | 44.39217 | 24496 ft | 334 kts | 185° |
| 2026-04-22 08:16 | 50.30429 | 44.39004 | 24132 ft | 330 kts | 185° |
| 2026-04-22 08:16 | 50.28143 | 44.38789 | 23760 ft | 328 kts | 185° |
| 2026-04-22 08:17 | 50.25873 | 44.38587 | 23408 ft | 325 kts | 185° |
| 2026-04-22 08:17 | 50.23622 | 44.38385 | 23062 ft | 323 kts | 185° |
| 2026-04-22 08:17 | 50.21390 | 44.38182 | 22720 ft | 320 kts | 185° |
| 2026-04-22 08:17 | 50.19175 | 44.37982 | 22383 ft | 317 kts | 185° |
| 2026-04-22 08:18 | 50.16981 | 44.37784 | 22055 ft | 315 kts | 185° |
| 2026-04-22 08:18 | 50.14833 | 44.37591 | 21729 ft | 312 kts | 185° |
| 2026-04-22 08:18 | 50.12649 | 44.37393 | 21393 ft | 309 kts | 185° |
| 2026-04-22 08:18 | 50.10539 | 44.37203 | 21063 ft | 307 kts | 185° |
| 2026-04-22 08:19 | 50.08417 | 44.37012 | 20742 ft | 304 kts | 185° |
| 2026-04-22 08:19 | 50.06317 | 44.36822 | 20421 ft | 301 kts | 185° |
| 2026-04-22 08:19 | 50.04240 | 44.36635 | 20103 ft | 297 kts | 185° |
| 2026-04-22 08:19 | 50.02184 | 44.36451 | 19805 ft | 294 kts | 185° |
| 2026-04-22 08:20 | 50.00152 | 44.36269 | 19497 ft | 291 kts | 185° |
| 2026-04-22 08:20 | 49.98139 | 44.36089 | 19195 ft | 288 kts | 186° |
| 2026-04-22 08:20 | 49.96144 | 44.35910 | 18893 ft | 286 kts | 186° |
| 2026-04-22 08:20 | 49.94166 | 44.35733 | 18588 ft | 284 kts | 186° |
| 2026-04-22 08:21 | 49.92206 | 44.35557 | 18285 ft | 281 kts | 186° |
| 2026-04-22 08:21 | 49.90264 | 44.35379 | 17976 ft | 281 kts | 186° |
| 2026-04-22 08:21 | 49.88292 | 44.35203 | 17684 ft | 287 kts | 185° |
| 2026-04-22 08:21 | 49.86291 | 44.35026 | 17387 ft | 289 kts | 186° |
| 2026-04-22 08:22 | 49.84284 | 44.34848 | 17086 ft | 288 kts | 186° |
| 2026-04-22 08:22 | 49.82294 | 44.34672 | 16784 ft | 285 kts | 186° |
| 2026-04-22 08:22 | 49.80325 | 44.34497 | 16483 ft | 282 kts | 186° |
| 2026-04-22 08:22 | 49.78374 | 44.34324 | 16186 ft | 279 kts | 186° |
| 2026-04-22 08:23 | 49.76445 | 44.34152 | 15891 ft | 276 kts | 186° |
| 2026-04-22 08:23 | 49.74536 | 44.33982 | 15605 ft | 273 kts | 186° |
| 2026-04-22 08:23 | 49.72648 | 44.33816 | 15319 ft | 270 kts | 186° |
| 2026-04-22 08:23 | 49.70782 | 44.33649 | 15027 ft | 267 kts | 186° |
| 2026-04-22 08:24 | 49.68918 | 44.33484 | 14746 ft | 271 kts | 186° |
| 2026-04-22 08:24 | 49.67021 | 44.33315 | 14463 ft | 276 kts | 186° |
| 2026-04-22 08:24 | 49.65098 | 44.33146 | 14163 ft | 277 kts | 186° |
| 2026-04-22 08:24 | 49.63176 | 44.32975 | 13878 ft | 277 kts | 186° |
| 2026-04-22 08:25 | 49.61250 | 44.32806 | 13571 ft | 277 kts | 186° |
| 2026-04-22 08:25 | 49.59325 | 44.32636 | 13279 ft | 277 kts | 186° |
| 2026-04-22 08:25 | 49.57406 | 44.32467 | 12979 ft | 276 kts | 186° |
| 2026-04-22 08:25 | 49.55480 | 44.32465 | 12646 ft | 277 kts | 182° |
| 2026-04-22 08:26 | 49.53561 | 44.32511 | 12347 ft | 274 kts | 183° |
| 2026-04-22 08:26 | 49.51660 | 44.32547 | 12060 ft | 272 kts | 183° |
| 2026-04-22 08:26 | 49.49778 | 44.32577 | 11773 ft | 269 kts | 183° |
| 2026-04-22 08:26 | 49.47918 | 44.32603 | 11497 ft | 266 kts | 183° |
| 2026-04-22 08:27 | 49.46078 | 44.32629 | 11225 ft | 264 kts | 183° |
| 2026-04-22 08:27 | 49.44246 | 44.32652 | 10934 ft | 263 kts | 183° |
| 2026-04-22 08:27 | 49.42581 | 44.32674 | 10669 ft | 261 kts | 183° |
| 2026-04-22 08:27 | 49.41383 | 44.32689 | 10490 ft | 261 kts | 183° |
| 2026-04-22 08:28 | 49.39571 | 44.32714 | 10209 ft | 260 kts | 183° |
| 2026-04-22 08:28 | 49.37774 | 44.32737 | 9922 ft | 258 kts | 183° |
| 2026-04-22 08:28 | 49.35993 | 44.32759 | 9683 ft | 254 kts | 183° |
| 2026-04-22 08:28 | 49.34240 | 44.32779 | 9423 ft | 250 kts | 183° |
| 2026-04-22 08:29 | 49.32509 | 44.32801 | 9164 ft | 247 kts | 183° |
| 2026-04-22 08:29 | 49.30822 | 44.32824 | 8901 ft | 244 kts | 183° |
| 2026-04-22 08:29 | 49.29129 | 44.32846 | 8637 ft | 242 kts | 183° |
| 2026-04-22 08:29 | 49.27454 | 44.32868 | 8375 ft | 239 kts | 183° |
| 2026-04-22 08:30 | 49.25798 | 44.32889 | 8134 ft | 237 kts | 183° |
| 2026-04-22 08:30 | 49.24143 | 44.32910 | 7886 ft | 241 kts | 182° |
| 2026-04-22 08:30 | 49.22448 | 44.32932 | 7619 ft | 245 kts | 182° |
| 2026-04-22 08:30 | 49.20733 | 44.32956 | 7295 ft | 247 kts | 182° |
| 2026-04-22 08:31 | 49.19019 | 44.32977 | 7023 ft | 245 kts | 182° |
| 2026-04-22 08:31 | 49.17327 | 44.32997 | 6772 ft | 242 kts | 182° |
| 2026-04-22 08:31 | 49.14072 | 44.33858 | 6216 ft | 244 kts | 158° |
| 2026-04-22 08:32 | 49.12562 | 44.35003 | 5950 ft | 241 kts | 158° |
| 2026-04-22 08:32 | 49.11064 | 44.36140 | 5679 ft | 239 kts | 158° |
| 2026-04-22 08:32 | 49.09583 | 44.37274 | 5419 ft | 237 kts | 158° |
| 2026-04-22 08:32 | 49.08118 | 44.38404 | 5162 ft | 235 kts | 157° |
| 2026-04-22 08:33 | 49.06670 | 44.39524 | 4930 ft | 232 kts | 157° |
| 2026-04-22 08:33 | 49.05256 | 44.40621 | 4797 ft | 224 kts | 157° |
| 2026-04-22 08:33 | 49.03892 | 44.41677 | 4667 ft | 215 kts | 157° |
| 2026-04-22 08:33 | 49.02594 | 44.42685 | 4608 ft | 203 kts | 158° |
| 2026-04-22 08:34 | 49.01360 | 44.43647 | 4476 ft | 196 kts | 158° |
| 2026-04-22 08:34 | 49.00178 | 44.44568 | 4323 ft | 187 kts | 158° |
| 2026-04-22 08:34 | 48.99029 | 44.45453 | 4180 ft | 184 kts | 158° |
| 2026-04-22 08:34 | 48.97883 | 44.46329 | 4173 ft | 186 kts | 157° |
| 2026-04-22 08:35 | 48.96737 | 44.47222 | 4145 ft | 185 kts | 158° |
| 2026-04-22 08:35 | 48.95594 | 44.48105 | 4058 ft | 183 kts | 158° |
| 2026-04-22 08:35 | 48.94479 | 44.48967 | 3977 ft | 178 kts | 158° |
| 2026-04-22 08:35 | 48.93380 | 44.49789 | 3810 ft | 176 kts | 160° |
| 2026-04-22 08:36 | 48.92267 | 44.50590 | 3524 ft | 178 kts | 159° |
| 2026-04-22 08:36 | 48.91144 | 44.51403 | 3236 ft | 179 kts | 159° |
| 2026-04-22 08:36 | 48.90015 | 44.52220 | 2930 ft | 181 kts | 158° |
| 2026-04-22 08:36 | 48.88878 | 44.53044 | 2638 ft | 180 kts | 158° |
| 2026-04-22 08:37 | 48.87755 | 44.53859 | 2334 ft | 178 kts | 158° |
| 2026-04-22 08:37 | 48.86631 | 44.54652 | 2052 ft | 175 kts | 166° |
| 2026-04-22 08:37 | 48.85525 | 44.54657 | 1935 ft | 151 kts | 206° |
| 2026-04-22 08:37 | 48.84764 | 44.53633 | 1957 ft | 148 kts | 232° |
| 2026-04-22 08:38 | 48.84170 | 44.52336 | 2035 ft | 151 kts | 236° |
| 2026-04-22 08:38 | 48.83631 | 44.50965 | 2007 ft | 152 kts | 239° |
| 2026-04-22 08:38 | 48.83133 | 44.49557 | 2007 ft | 151 kts | 241° |
| 2026-04-22 08:38 | 48.82662 | 44.48137 | 2014 ft | 150 kts | 242° |
| 2026-04-22 08:39 | 48.82204 | 44.46710 | 1998 ft | 150 kts | 241° |
| 2026-04-22 08:39 | 48.81751 | 44.45283 | 1848 ft | 150 kts | 241° |
| 2026-04-22 08:39 | 48.81299 | 44.43874 | 1716 ft | 147 kts | 243° |
| 2026-04-22 08:39 | 48.80864 | 44.42502 | 1507 ft | 139 kts | 243° |
| 2026-04-22 08:40 | 48.80472 | 44.41251 | 1325 ft | 130 kts | 244° |
| 2026-04-22 08:40 | 48.80089 | 44.40051 | 1151 ft | 124 kts | 243° |
| 2026-04-22 08:40 | 48.79708 | 44.38862 | 1012 ft | 123 kts | 243° |
| 2026-04-22 08:40 | 48.79343 | 44.37714 | 847 ft | 124 kts | 244° |
| 2026-04-22 08:41 | 48.78968 | 44.36522 | 684 ft | 128 kts | 242° |
| 2026-04-22 08:41 | 48.78583 | 44.35305 | 512 ft | 127 kts | 244° |
| 2026-04-22 08:41 | 48.78216 | 44.34151 | 464 ft | 106 kts | 244° |
| 2026-04-22 08:41 | 48.77939 | 44.33287 | 455 ft | 81 kts | 244° |
| 2026-04-22 08:42 | 48.77753 | 44.32697 | 448 ft | 55 kts | 244° |
| 2026-04-22 08:42 | 48.77615 | 44.32264 | 440 ft | 37 kts | 244° |
| 2026-04-22 08:42 | 48.77519 | 44.31959 | 433 ft | 23 kts | 245° |
| 2026-04-22 08:42 | 48.77559 | 44.31807 | 446 ft | 14 kts | 334° |
| 2026-04-22 08:43 | 48.77597 | 44.31779 | 451 ft | 0 kts | 335° |
| 2026-04-22 08:44 | 48.77614 | 44.31775 | 452 ft | 8 kts | 359° |
| 2026-04-22 08:44 | 48.77659 | 44.31824 | 453 ft | 18 kts | 65° |
| 2026-04-22 08:44 | 48.77720 | 44.32026 | 453 ft | 23 kts | 63° |
| 2026-04-22 08:44 | 48.77795 | 44.32254 | 453 ft | 25 kts | 64° |
| 2026-04-22 08:45 | 48.77873 | 44.32502 | 453 ft | 27 kts | 65° |
| 2026-04-22 08:45 | 48.77958 | 44.32768 | 454 ft | 29 kts | 64° |
| 2026-04-22 08:45 | 48.78048 | 44.33052 | 454 ft | 31 kts | 65° |
| 2026-04-22 08:45 | 48.78141 | 44.33356 | 454 ft | 33 kts | 65° |
| 2026-04-22 08:46 | 48.78226 | 44.33618 | 455 ft | 28 kts | 64° |
| 2026-04-22 08:46 | 48.78313 | 44.33891 | 456 ft | 30 kts | 64° |
| 2026-04-22 08:46 | 48.78397 | 44.34148 | 464 ft | 24 kts | 60° |
| 2026-04-22 08:46 | 48.78539 | 44.34164 | 456 ft | 24 kts | 344° |
| 2026-04-22 08:47 | 48.78659 | 44.34208 | 455 ft | 18 kts | 69° |
| 2026-04-22 08:47 | 48.78708 | 44.34402 | 455 ft | 21 kts | 69° |
| 2026-04-22 08:47 | 48.78764 | 44.34618 | 455 ft | 23 kts | 69° |
| 2026-04-22 08:47 | 48.78799 | 44.34757 | 455 ft | 24 kts | 69° |
| 2026-04-22 08:48 | 48.78817 | 44.34831 | 455 ft | 25 kts | 70° |
| 2026-04-22 08:48 | 48.78865 | 44.35019 | 455 ft | 13 kts | 68° |
| 2026-04-22 08:48 | 48.78907 | 44.35080 | 455 ft | 4 kts | 334° |
| 2026-04-22 08:48 | 48.78943 | 44.35056 | 455 ft | 7 kts | 341° |
| 2026-04-22 08:49 | 48.78967 | 44.35042 | 455 ft | 1 kts | 339° |